DLH1744 EDDM-DTTA
Flight info
| Callsign | DLH1744 |
|---|---|
| Flight time | 1h 42m |
| Altitude | 37000 |
| Route | TURBU6E/08R TURBU Y107 TOBSO DCT BAKOR DCT TIPNI DCT QUENN DCT NOLSI UA868 MEDAR |
| Aircraft | A320/M-SDE3FGHIRWY/LB1 |
Departure
| Time | 2026-05-01 12:34 |
|---|---|
| Airport | Munich Airport (EDDM) |
Arrival
| Time | 2026-05-01 14:17 |
|---|---|
| Airport | Tunis Carthage International Airport (DTTA) |
| Time | Latitude | Longitude | Altitude | Speed | Heading |
|---|---|---|---|---|---|
| 2026-05-01 11:37 | 48.35619 | 11.79707 | 1475 ft | 0 kts | 83° |
| 2026-05-01 12:17 | 48.35618 | 11.79702 | 1485 ft | 3 kts | 83° |
| 2026-05-01 12:18 | 48.35615 | 11.79663 | 1475 ft | 4 kts | 83° |
| 2026-05-01 12:18 | 48.35612 | 11.79623 | 1477 ft | 4 kts | 84° |
| 2026-05-01 12:18 | 48.35614 | 11.79585 | 1476 ft | 4 kts | 118° |
| 2026-05-01 12:18 | 48.35631 | 11.79560 | 1476 ft | 4 kts | 167° |
| 2026-05-01 12:19 | 48.35652 | 11.79555 | 1474 ft | 4 kts | 173° |
| 2026-05-01 12:19 | 48.35657 | 11.79555 | 1475 ft | 0 kts | 173° |
| 2026-05-01 12:21 | 48.35646 | 11.79558 | 1472 ft | 6 kts | 169° |
| 2026-05-01 12:22 | 48.35587 | 11.79542 | 1481 ft | 10 kts | 209° |
| 2026-05-01 12:22 | 48.35518 | 11.79512 | 1473 ft | 11 kts | 174° |
| 2026-05-01 12:22 | 48.35429 | 11.79526 | 1478 ft | 15 kts | 173° |
| 2026-05-01 12:22 | 48.35317 | 11.79546 | 1483 ft | 18 kts | 173° |
| 2026-05-01 12:23 | 48.35185 | 11.79571 | 1482 ft | 21 kts | 172° |
| 2026-05-01 12:23 | 48.35057 | 11.79590 | 1476 ft | 16 kts | 172° |
| 2026-05-01 12:23 | 48.34974 | 11.79561 | 1479 ft | 12 kts | 203° |
| 2026-05-01 12:23 | 48.34926 | 11.79547 | 1485 ft | 0 kts | 181° |
| 2026-05-01 12:25 | 48.34904 | 11.79550 | 1474 ft | 5 kts | 173° |
| 2026-05-01 12:25 | 48.34816 | 11.79555 | 1482 ft | 10 kts | 193° |
| 2026-05-01 12:25 | 48.34784 | 11.79458 | 1480 ft | 11 kts | 264° |
| 2026-05-01 12:26 | 48.34776 | 11.79357 | 1485 ft | 9 kts | 263° |
| 2026-05-01 12:26 | 48.34754 | 11.79082 | 1485 ft | 15 kts | 262° |
| 2026-05-01 12:26 | 48.34743 | 11.78935 | 1485 ft | 14 kts | 264° |
| 2026-05-01 12:27 | 48.34733 | 11.78801 | 1485 ft | 13 kts | 264° |
| 2026-05-01 12:27 | 48.34708 | 11.78490 | 1479 ft | 14 kts | 264° |
| 2026-05-01 12:28 | 48.34684 | 11.78167 | 1482 ft | 18 kts | 263° |
| 2026-05-01 12:28 | 48.34670 | 11.77989 | 1485 ft | 16 kts | 264° |
| 2026-05-01 12:28 | 48.34645 | 11.77668 | 1478 ft | 16 kts | 264° |
| 2026-05-01 12:29 | 48.34634 | 11.77514 | 1483 ft | 14 kts | 263° |
| 2026-05-01 12:29 | 48.34623 | 11.77375 | 1476 ft | 13 kts | 264° |
| 2026-05-01 12:29 | 48.34605 | 11.77141 | 1481 ft | 12 kts | 262° |
| 2026-05-01 12:30 | 48.34581 | 11.76828 | 1485 ft | 14 kts | 263° |
| 2026-05-01 12:30 | 48.34570 | 11.76688 | 1485 ft | 14 kts | 264° |
| 2026-05-01 12:30 | 48.34558 | 11.76522 | 1483 ft | 16 kts | 263° |
| 2026-05-01 12:31 | 48.34544 | 11.76352 | 1482 ft | 19 kts | 264° |
| 2026-05-01 12:31 | 48.34527 | 11.76130 | 1485 ft | 22 kts | 264° |
| 2026-05-01 12:31 | 48.34511 | 11.75916 | 1480 ft | 20 kts | 263° |
| 2026-05-01 12:31 | 48.34495 | 11.75720 | 1485 ft | 19 kts | 263° |
| 2026-05-01 12:32 | 48.34478 | 11.75494 | 1481 ft | 24 kts | 264° |
| 2026-05-01 12:32 | 48.34379 | 11.75223 | 1484 ft | 12 kts | 173° |
| 2026-05-01 12:32 | 48.34289 | 11.75238 | 1485 ft | 14 kts | 173° |
| 2026-05-01 12:33 | 48.34222 | 11.75250 | 1485 ft | 6 kts | 173° |
| 2026-05-01 12:33 | 48.34176 | 11.75258 | 1485 ft | 11 kts | 173° |
| 2026-05-01 12:33 | 48.34087 | 11.75313 | 1481 ft | 11 kts | 108° |
| 2026-05-01 12:33 | 48.34096 | 11.75462 | 1485 ft | 25 kts | 84° |
| 2026-05-01 12:34 | 48.34144 | 11.76089 | 1482 ft | 93 kts | 83° |
| 2026-05-01 12:34 | 48.34242 | 11.77344 | 1486 ft | 146 kts | 83° |
| 2026-05-01 12:34 | 48.34372 | 11.79052 | 1683 ft | 176 kts | 83° |
| 2026-05-01 12:34 | 48.34518 | 11.80921 | 2451 ft | 179 kts | 83° |
| 2026-05-01 12:35 | 48.34656 | 11.82797 | 3192 ft | 187 kts | 84° |
| 2026-05-01 12:35 | 48.34806 | 11.84859 | 3554 ft | 211 kts | 84° |
| 2026-05-01 12:35 | 48.34977 | 11.87145 | 4230 ft | 224 kts | 85° |
| 2026-05-01 12:35 | 48.35155 | 11.89498 | 5158 ft | 229 kts | 85° |
| 2026-05-01 12:36 | 48.35339 | 11.91890 | 6056 ft | 233 kts | 85° |
| 2026-05-01 12:36 | 48.35413 | 11.94344 | 6868 ft | 238 kts | 100° |
| 2026-05-01 12:36 | 48.34675 | 11.96565 | 7645 ft | 245 kts | 133° |
| 2026-05-01 12:36 | 48.33350 | 11.98225 | 8509 ft | 249 kts | 139° |
| 2026-05-01 12:37 | 48.31970 | 11.99829 | 9387 ft | 252 kts | 140° |
| 2026-05-01 12:37 | 48.30542 | 12.01412 | 10195 ft | 259 kts | 147° |
| 2026-05-01 12:37 | 48.28844 | 12.02454 | 10903 ft | 271 kts | 163° |
| 2026-05-01 12:37 | 48.26881 | 12.02684 | 11282 ft | 295 kts | 180° |
| 2026-05-01 12:38 | 48.24795 | 12.02533 | 11916 ft | 304 kts | 179° |
| 2026-05-01 12:38 | 48.22667 | 12.02393 | 12659 ft | 309 kts | 179° |
| 2026-05-01 12:38 | 48.20501 | 12.02259 | 13403 ft | 314 kts | 179° |
| 2026-05-01 12:38 | 48.18298 | 12.02127 | 14134 ft | 319 kts | 179° |
| 2026-05-01 12:39 | 48.16067 | 12.01999 | 14789 ft | 323 kts | 179° |
| 2026-05-01 12:39 | 48.13811 | 12.01870 | 15488 ft | 326 kts | 179° |
| 2026-05-01 12:39 | 48.11528 | 12.01738 | 16189 ft | 330 kts | 179° |
| 2026-05-01 12:39 | 48.09221 | 12.01609 | 16844 ft | 334 kts | 179° |
| 2026-05-01 12:40 | 48.06921 | 12.01325 | 17499 ft | 340 kts | 187° |
| 2026-05-01 12:40 | 48.04530 | 12.00448 | 17748 ft | 360 kts | 193° |
| 2026-05-01 12:40 | 48.02078 | 11.99423 | 17878 ft | 379 kts | 193° |
| 2026-05-01 12:40 | 47.99482 | 11.98319 | 18099 ft | 394 kts | 193° |
| 2026-05-01 12:41 | 47.96825 | 11.97184 | 18619 ft | 401 kts | 193° |
| 2026-05-01 12:41 | 47.94125 | 11.96030 | 19132 ft | 405 kts | 193° |
| 2026-05-01 12:41 | 47.91382 | 11.95076 | 19642 ft | 406 kts | 185° |
| 2026-05-01 12:41 | 47.88563 | 11.94801 | 20150 ft | 407 kts | 177° |
| 2026-05-01 12:42 | 47.85721 | 11.94763 | 20667 ft | 410 kts | 178° |
| 2026-05-01 12:42 | 47.82854 | 11.94716 | 21166 ft | 414 kts | 178° |
| 2026-05-01 12:42 | 47.79966 | 11.94661 | 21670 ft | 417 kts | 178° |
| 2026-05-01 12:42 | 47.77048 | 11.94601 | 22154 ft | 421 kts | 178° |
| 2026-05-01 12:43 | 47.74108 | 11.94546 | 22632 ft | 424 kts | 178° |
| 2026-05-01 12:43 | 47.71141 | 11.94492 | 23093 ft | 428 kts | 178° |
| 2026-05-01 12:43 | 47.68152 | 11.94439 | 23573 ft | 431 kts | 178° |
| 2026-05-01 12:43 | 47.65137 | 11.94386 | 24034 ft | 435 kts | 178° |
| 2026-05-01 12:44 | 47.62141 | 11.94332 | 24389 ft | 438 kts | 178° |
| 2026-05-01 12:44 | 47.59080 | 11.94277 | 24797 ft | 440 kts | 178° |
| 2026-05-01 12:44 | 47.52911 | 11.94176 | 25513 ft | 446 kts | 178° |
| 2026-05-01 12:45 | 47.46654 | 11.94068 | 26301 ft | 451 kts | 178° |
| 2026-05-01 12:45 | 47.43505 | 11.93987 | 26668 ft | 455 kts | 181° |
| 2026-05-01 12:45 | 47.40350 | 11.93471 | 27038 ft | 459 kts | 186° |
| 2026-05-01 12:46 | 47.37175 | 11.92828 | 27421 ft | 461 kts | 186° |
| 2026-05-01 12:46 | 47.35064 | 11.92402 | 27672 ft | 463 kts | 186° |
| 2026-05-01 12:46 | 47.30777 | 11.91544 | 28142 ft | 466 kts | 186° |
| 2026-05-01 12:46 | 47.28643 | 11.91119 | 28384 ft | 468 kts | 186° |
| 2026-05-01 12:47 | 47.25404 | 11.90473 | 28721 ft | 471 kts | 186° |
| 2026-05-01 12:47 | 47.22155 | 11.89825 | 29075 ft | 473 kts | 186° |
| 2026-05-01 12:47 | 47.18887 | 11.89172 | 29404 ft | 475 kts | 186° |
| 2026-05-01 12:47 | 47.15595 | 11.88519 | 29724 ft | 478 kts | 186° |
| 2026-05-01 12:48 | 47.12290 | 11.87868 | 30056 ft | 480 kts | 186° |
| 2026-05-01 12:48 | 47.08966 | 11.87215 | 30356 ft | 482 kts | 186° |
| 2026-05-01 12:48 | 47.05626 | 11.86558 | 30663 ft | 485 kts | 186° |
| 2026-05-01 12:48 | 47.02268 | 11.85898 | 30972 ft | 487 kts | 186° |
| 2026-05-01 12:49 | 46.98970 | 11.85131 | 31319 ft | 487 kts | 188° |
| 2026-05-01 12:49 | 46.95607 | 11.84154 | 31633 ft | 487 kts | 191° |
| 2026-05-01 12:49 | 46.92349 | 11.83073 | 31968 ft | 487 kts | 191° |
| 2026-05-01 12:49 | 46.89050 | 11.81913 | 32358 ft | 486 kts | 192° |
| 2026-05-01 12:50 | 46.85766 | 11.80758 | 32739 ft | 485 kts | 191° |
| 2026-05-01 12:50 | 46.82476 | 11.79637 | 33096 ft | 485 kts | 191° |
| 2026-05-01 12:50 | 46.79186 | 11.78564 | 33457 ft | 484 kts | 190° |
| 2026-05-01 12:50 | 46.75894 | 11.77527 | 33816 ft | 484 kts | 189° |
| 2026-05-01 12:51 | 46.72597 | 11.76508 | 34143 ft | 484 kts | 189° |
| 2026-05-01 12:51 | 46.69296 | 11.75492 | 34449 ft | 485 kts | 189° |
| 2026-05-01 12:51 | 46.62713 | 11.73444 | 35039 ft | 483 kts | 190° |
| 2026-05-01 12:52 | 46.59427 | 11.72440 | 35369 ft | 482 kts | 189° |
| 2026-05-01 12:52 | 46.52829 | 11.70796 | 35962 ft | 479 kts | 187° |
| 2026-05-01 12:52 | 46.49534 | 11.70096 | 36257 ft | 478 kts | 186° |
| 2026-05-01 12:53 | 46.42947 | 11.68723 | 36788 ft | 477 kts | 187° |
| 2026-05-01 12:53 | 46.39668 | 11.68006 | 37060 ft | 477 kts | 187° |
| 2026-05-01 12:53 | 46.36383 | 11.67264 | 37270 ft | 477 kts | 188° |
| 2026-05-01 12:54 | 46.33107 | 11.66507 | 37313 ft | 478 kts | 188° |
| 2026-05-01 12:54 | 46.23295 | 11.64222 | 37311 ft | 477 kts | 188° |
| 2026-05-01 12:55 | 46.13449 | 11.61985 | 37333 ft | 477 kts | 188° |
| 2026-05-01 12:56 | 46.06882 | 11.60508 | 37334 ft | 477 kts | 188° |
| 2026-05-01 12:56 | 46.00320 | 11.59023 | 37344 ft | 478 kts | 188° |
| 2026-05-01 12:57 | 45.93755 | 11.57534 | 37355 ft | 478 kts | 188° |
| 2026-05-01 12:57 | 45.83885 | 11.55314 | 37364 ft | 478 kts | 188° |
| 2026-05-01 12:58 | 45.77304 | 11.53844 | 37362 ft | 478 kts | 188° |
| 2026-05-01 12:59 | 45.67448 | 11.51640 | 37372 ft | 478 kts | 188° |
| 2026-05-01 12:59 | 45.57584 | 11.49444 | 37385 ft | 478 kts | 188° |
| 2026-05-01 13:00 | 45.47701 | 11.47245 | 37381 ft | 479 kts | 188° |
| 2026-05-01 13:01 | 45.37848 | 11.45063 | 37381 ft | 480 kts | 188° |
| 2026-05-01 13:02 | 45.27945 | 11.42888 | 37380 ft | 480 kts | 188° |
| 2026-05-01 13:07 | 44.55183 | 11.27080 | 37352 ft | 482 kts | 189° |
| 2026-05-01 13:08 | 44.48557 | 11.25664 | 37349 ft | 482 kts | 189° |
| 2026-05-01 13:08 | 44.41920 | 11.24240 | 37334 ft | 482 kts | 189° |
| 2026-05-01 13:09 | 44.35279 | 11.22812 | 37319 ft | 483 kts | 189° |
| 2026-05-01 13:09 | 44.28608 | 11.21405 | 37318 ft | 484 kts | 189° |
| 2026-05-01 13:10 | 44.21908 | 11.20206 | 37323 ft | 485 kts | 187° |
| 2026-05-01 13:10 | 44.15212 | 11.19114 | 37319 ft | 485 kts | 187° |
| 2026-05-01 13:11 | 44.08497 | 11.17996 | 37308 ft | 485 kts | 188° |
| 2026-05-01 13:11 | 44.01796 | 11.16829 | 37299 ft | 486 kts | 188° |
| 2026-05-01 13:12 | 43.95111 | 11.15665 | 37285 ft | 487 kts | 188° |
| 2026-05-01 13:12 | 43.88366 | 11.14516 | 37280 ft | 488 kts | 188° |
| 2026-05-01 13:13 | 43.81630 | 11.13360 | 37286 ft | 488 kts | 188° |
| 2026-05-01 13:13 | 43.74886 | 11.12199 | 37290 ft | 488 kts | 188° |
| 2026-05-01 13:14 | 43.68128 | 11.11054 | 37300 ft | 488 kts | 188° |
| 2026-05-01 13:14 | 43.61383 | 11.09907 | 37285 ft | 489 kts | 188° |
| 2026-05-01 13:15 | 43.54664 | 11.08757 | 37279 ft | 490 kts | 188° |
| 2026-05-01 13:15 | 43.47896 | 11.07603 | 37279 ft | 490 kts | 188° |
| 2026-05-01 13:16 | 43.41111 | 11.06460 | 37271 ft | 491 kts | 188° |
| 2026-05-01 13:16 | 43.34322 | 11.05316 | 37273 ft | 492 kts | 188° |
| 2026-05-01 13:17 | 43.20700 | 11.03021 | 37262 ft | 494 kts | 188° |
| 2026-05-01 13:18 | 43.10443 | 11.01311 | 37256 ft | 495 kts | 188° |
| 2026-05-01 13:18 | 43.03629 | 11.00170 | 37260 ft | 496 kts | 188° |
| 2026-05-01 13:19 | 42.96771 | 10.99027 | 37253 ft | 497 kts | 188° |
| 2026-05-01 13:20 | 42.86461 | 10.97309 | 37283 ft | 497 kts | 189° |
| 2026-05-01 13:20 | 42.79588 | 10.96159 | 37299 ft | 497 kts | 189° |
| 2026-05-01 13:21 | 42.69283 | 10.94458 | 37292 ft | 496 kts | 189° |
| 2026-05-01 13:21 | 42.62426 | 10.93338 | 37289 ft | 496 kts | 189° |
| 2026-05-01 13:22 | 42.55622 | 10.92212 | 37279 ft | 495 kts | 189° |
| 2026-05-01 13:22 | 42.48770 | 10.91088 | 37258 ft | 495 kts | 189° |
| 2026-05-01 13:23 | 42.41927 | 10.89971 | 37251 ft | 494 kts | 189° |
| 2026-05-01 13:23 | 42.35092 | 10.88859 | 37253 ft | 494 kts | 189° |
| 2026-05-01 13:24 | 42.28267 | 10.87743 | 37247 ft | 494 kts | 189° |
| 2026-05-01 13:25 | 42.18039 | 10.86080 | 37245 ft | 494 kts | 189° |
| 2026-05-01 13:25 | 42.11205 | 10.84962 | 37245 ft | 494 kts | 189° |
| 2026-05-01 13:26 | 42.04385 | 10.83859 | 37247 ft | 494 kts | 189° |
| 2026-05-01 13:26 | 41.97600 | 10.82770 | 37250 ft | 494 kts | 189° |
| 2026-05-01 13:27 | 41.90783 | 10.81673 | 37251 ft | 494 kts | 189° |
| 2026-05-01 13:27 | 41.80548 | 10.80032 | 37251 ft | 494 kts | 189° |
| 2026-05-01 13:28 | 41.70312 | 10.78382 | 37251 ft | 494 kts | 189° |
| 2026-05-01 13:29 | 41.56680 | 10.76207 | 37257 ft | 493 kts | 190° |
| 2026-05-01 13:31 | 41.36307 | 10.72982 | 37266 ft | 492 kts | 190° |
| 2026-05-01 13:32 | 41.20506 | 10.70487 | 37269 ft | 489 kts | 191° |
| 2026-05-01 13:33 | 41.03649 | 10.67842 | 37253 ft | 486 kts | 192° |
| 2026-05-01 13:34 | 40.90281 | 10.65760 | 37262 ft | 484 kts | 192° |
| 2026-05-01 13:35 | 40.80247 | 10.64192 | 37262 ft | 484 kts | 192° |
| 2026-05-01 13:36 | 40.70211 | 10.62632 | 37263 ft | 483 kts | 192° |
| 2026-05-01 13:36 | 40.60218 | 10.61080 | 37264 ft | 482 kts | 192° |
| 2026-05-01 13:37 | 40.53550 | 10.60054 | 37266 ft | 481 kts | 192° |
| 2026-05-01 13:37 | 40.46906 | 10.59040 | 37265 ft | 480 kts | 192° |
| 2026-05-01 13:38 | 40.37007 | 10.57510 | 37257 ft | 478 kts | 193° |
| 2026-05-01 13:39 | 40.30405 | 10.56497 | 37256 ft | 477 kts | 192° |
| 2026-05-01 13:39 | 40.23823 | 10.55488 | 37268 ft | 475 kts | 192° |
| 2026-05-01 13:40 | 40.17253 | 10.54487 | 37268 ft | 475 kts | 192° |
| 2026-05-01 13:40 | 40.10684 | 10.53571 | 37262 ft | 475 kts | 191° |
| 2026-05-01 13:41 | 40.04091 | 10.52792 | 37261 ft | 475 kts | 191° |
| 2026-05-01 13:41 | 39.97554 | 10.52016 | 37244 ft | 474 kts | 191° |
| 2026-05-01 13:42 | 39.91002 | 10.51192 | 37248 ft | 472 kts | 191° |
| 2026-05-01 13:42 | 39.84476 | 10.50372 | 37257 ft | 471 kts | 191° |
| 2026-05-01 13:43 | 39.77954 | 10.49572 | 37246 ft | 470 kts | 191° |
| 2026-05-01 13:43 | 39.71454 | 10.48773 | 37248 ft | 468 kts | 191° |
| 2026-05-01 13:44 | 39.64982 | 10.47979 | 37251 ft | 467 kts | 191° |
| 2026-05-01 13:44 | 39.58524 | 10.47187 | 37242 ft | 465 kts | 191° |
| 2026-05-01 13:45 | 39.52081 | 10.46394 | 37233 ft | 464 kts | 192° |
| 2026-05-01 13:45 | 39.45652 | 10.45608 | 37233 ft | 464 kts | 192° |
| 2026-05-01 13:46 | 39.39269 | 10.44828 | 37232 ft | 463 kts | 192° |
| 2026-05-01 13:46 | 39.32860 | 10.44049 | 37210 ft | 462 kts | 192° |
| 2026-05-01 13:47 | 39.26456 | 10.43276 | 37219 ft | 461 kts | 192° |
| 2026-05-01 13:47 | 39.20068 | 10.42502 | 37216 ft | 461 kts | 192° |
| 2026-05-01 13:48 | 39.13690 | 10.41721 | 37214 ft | 461 kts | 192° |
| 2026-05-01 13:48 | 39.07301 | 10.40955 | 37215 ft | 460 kts | 192° |
| 2026-05-01 13:49 | 39.00988 | 10.40199 | 37227 ft | 458 kts | 192° |
| 2026-05-01 13:49 | 38.94657 | 10.39429 | 37228 ft | 456 kts | 193° |
| 2026-05-01 13:50 | 38.88336 | 10.38658 | 37200 ft | 456 kts | 193° |
| 2026-05-01 13:50 | 38.82036 | 10.37909 | 37220 ft | 454 kts | 193° |
| 2026-05-01 13:51 | 38.75759 | 10.37164 | 37224 ft | 452 kts | 193° |
| 2026-05-01 13:51 | 38.69508 | 10.36417 | 37215 ft | 451 kts | 193° |
| 2026-05-01 13:52 | 38.63266 | 10.35668 | 37197 ft | 450 kts | 193° |
| 2026-05-01 13:52 | 38.57069 | 10.34928 | 37202 ft | 449 kts | 193° |
| 2026-05-01 13:53 | 38.50850 | 10.34179 | 37203 ft | 449 kts | 193° |
| 2026-05-01 13:53 | 38.44604 | 10.33436 | 36729 ft | 453 kts | 193° |
| 2026-05-01 13:53 | 38.41428 | 10.33053 | 35733 ft | 461 kts | 193° |
| 2026-05-01 13:54 | 38.38266 | 10.32675 | 34900 ft | 464 kts | 192° |
| 2026-05-01 13:54 | 38.34987 | 10.32286 | 33964 ft | 470 kts | 192° |
| 2026-05-01 13:54 | 38.31763 | 10.31903 | 32991 ft | 474 kts | 192° |
| 2026-05-01 13:54 | 38.28463 | 10.31512 | 32037 ft | 478 kts | 192° |
| 2026-05-01 13:55 | 38.25164 | 10.31125 | 31456 ft | 474 kts | 192° |
| 2026-05-01 13:55 | 38.21884 | 10.30747 | 30785 ft | 473 kts | 192° |
| 2026-05-01 13:55 | 38.18615 | 10.30372 | 30086 ft | 471 kts | 192° |
| 2026-05-01 13:55 | 38.15372 | 10.29996 | 29414 ft | 467 kts | 191° |
| 2026-05-01 13:56 | 38.12148 | 10.29619 | 28771 ft | 462 kts | 191° |
| 2026-05-01 13:56 | 38.08958 | 10.29244 | 28135 ft | 458 kts | 191° |
| 2026-05-01 13:56 | 38.05786 | 10.28873 | 27505 ft | 455 kts | 191° |
| 2026-05-01 13:56 | 38.02649 | 10.28524 | 26928 ft | 451 kts | 190° |
| 2026-05-01 13:57 | 37.99514 | 10.28281 | 26342 ft | 449 kts | 188° |
| 2026-05-01 13:57 | 37.96405 | 10.28130 | 25772 ft | 446 kts | 187° |
| 2026-05-01 13:57 | 37.93344 | 10.28029 | 25225 ft | 443 kts | 186° |
| 2026-05-01 13:57 | 37.90276 | 10.27942 | 24680 ft | 440 kts | 186° |
| 2026-05-01 13:58 | 37.87224 | 10.27845 | 24159 ft | 436 kts | 186° |
| 2026-05-01 13:58 | 37.84201 | 10.27726 | 23623 ft | 433 kts | 186° |
| 2026-05-01 13:58 | 37.81208 | 10.27587 | 23097 ft | 428 kts | 186° |
| 2026-05-01 13:58 | 37.78249 | 10.27439 | 22618 ft | 422 kts | 186° |
| 2026-05-01 13:59 | 37.75328 | 10.27290 | 22141 ft | 417 kts | 186° |
| 2026-05-01 13:59 | 37.72445 | 10.27145 | 21673 ft | 412 kts | 186° |
| 2026-05-01 13:59 | 37.69592 | 10.27000 | 21216 ft | 407 kts | 186° |
| 2026-05-01 13:59 | 37.66775 | 10.26858 | 20750 ft | 403 kts | 186° |
| 2026-05-01 14:00 | 37.63985 | 10.26721 | 20277 ft | 400 kts | 186° |
| 2026-05-01 14:00 | 37.61211 | 10.26589 | 19808 ft | 397 kts | 185° |
| 2026-05-01 14:00 | 37.58487 | 10.26461 | 19335 ft | 395 kts | 185° |
| 2026-05-01 14:00 | 37.55749 | 10.26334 | 18854 ft | 393 kts | 185° |
| 2026-05-01 14:01 | 37.53017 | 10.26209 | 18351 ft | 392 kts | 185° |
| 2026-05-01 14:01 | 37.50299 | 10.26082 | 17836 ft | 389 kts | 185° |
| 2026-05-01 14:01 | 37.47598 | 10.25958 | 17366 ft | 386 kts | 185° |
| 2026-05-01 14:01 | 37.44924 | 10.25838 | 16894 ft | 383 kts | 185° |
| 2026-05-01 14:02 | 37.42264 | 10.25720 | 16429 ft | 381 kts | 185° |
| 2026-05-01 14:02 | 37.39625 | 10.25603 | 15964 ft | 379 kts | 185° |
| 2026-05-01 14:02 | 37.37000 | 10.25485 | 15503 ft | 377 kts | 185° |
| 2026-05-01 14:02 | 37.34395 | 10.25365 | 15042 ft | 375 kts | 184° |
| 2026-05-01 14:03 | 37.31790 | 10.25243 | 14586 ft | 373 kts | 184° |
| 2026-05-01 14:03 | 37.29238 | 10.25122 | 14130 ft | 371 kts | 184° |
| 2026-05-01 14:03 | 37.26664 | 10.24998 | 13626 ft | 369 kts | 184° |
| 2026-05-01 14:03 | 37.24106 | 10.24876 | 13158 ft | 366 kts | 184° |
| 2026-05-01 14:04 | 37.21573 | 10.24756 | 12695 ft | 363 kts | 184° |
| 2026-05-01 14:04 | 37.19050 | 10.24641 | 12216 ft | 361 kts | 184° |
| 2026-05-01 14:04 | 37.16548 | 10.24530 | 11739 ft | 359 kts | 184° |
| 2026-05-01 14:04 | 37.14864 | 10.24455 | 11419 ft | 357 kts | 184° |
| 2026-05-01 14:05 | 37.11587 | 10.24310 | 10791 ft | 355 kts | 184° |
| 2026-05-01 14:05 | 37.09143 | 10.24201 | 10509 ft | 346 kts | 184° |
| 2026-05-01 14:05 | 37.06773 | 10.24093 | 10382 ft | 334 kts | 184° |
| 2026-05-01 14:05 | 37.04502 | 10.23990 | 10259 ft | 322 kts | 184° |
| 2026-05-01 14:06 | 37.02290 | 10.23889 | 10050 ft | 314 kts | 184° |
| 2026-05-01 14:06 | 37.00106 | 10.23787 | 9612 ft | 313 kts | 184° |
| 2026-05-01 14:06 | 36.97945 | 10.23684 | 9287 ft | 309 kts | 184° |
| 2026-05-01 14:06 | 36.95806 | 10.23581 | 8876 ft | 306 kts | 183° |
| 2026-05-01 14:07 | 36.93687 | 10.23483 | 8259 ft | 303 kts | 183° |
| 2026-05-01 14:07 | 36.91595 | 10.23389 | 7667 ft | 299 kts | 182° |
| 2026-05-01 14:07 | 36.89520 | 10.23297 | 7061 ft | 298 kts | 182° |
| 2026-05-01 14:08 | 36.85454 | 10.23098 | 5915 ft | 293 kts | 185° |
| 2026-05-01 14:08 | 36.83463 | 10.22588 | 5530 ft | 291 kts | 193° |
| 2026-05-01 14:08 | 36.81530 | 10.21977 | 5031 ft | 284 kts | 193° |
| 2026-05-01 14:08 | 36.79636 | 10.21382 | 4474 ft | 278 kts | 193° |
| 2026-05-01 14:09 | 36.77864 | 10.20437 | 3849 ft | 277 kts | 212° |
| 2026-05-01 14:09 | 36.76396 | 10.18912 | 3309 ft | 273 kts | 229° |
| 2026-05-01 14:09 | 36.75353 | 10.17003 | 3179 ft | 261 kts | 240° |
| 2026-05-01 14:09 | 36.74454 | 10.15099 | 3053 ft | 245 kts | 240° |
| 2026-05-01 14:10 | 36.73618 | 10.13344 | 3006 ft | 227 kts | 240° |
| 2026-05-01 14:10 | 36.72721 | 10.11806 | 3011 ft | 215 kts | 221° |
| 2026-05-01 14:10 | 36.71446 | 10.10919 | 3017 ft | 210 kts | 193° |
| 2026-05-01 14:10 | 36.70018 | 10.10832 | 3008 ft | 204 kts | 166° |
| 2026-05-01 14:11 | 36.68776 | 10.11489 | 3017 ft | 184 kts | 139° |
| 2026-05-01 14:11 | 36.67520 | 10.13796 | 3000 ft | 149 kts | 100° |
| 2026-05-01 14:11 | 36.67440 | 10.15026 | 3006 ft | 140 kts | 81° |
| 2026-05-01 14:12 | 36.67660 | 10.16205 | 3002 ft | 142 kts | 65° |
| 2026-05-01 14:12 | 36.68162 | 10.17254 | 3005 ft | 143 kts | 48° |
| 2026-05-01 14:12 | 36.68903 | 10.18066 | 2942 ft | 143 kts | 33° |
| 2026-05-01 14:12 | 36.69803 | 10.18544 | 2808 ft | 141 kts | 17° |
| 2026-05-01 14:13 | 36.70749 | 10.18800 | 2640 ft | 137 kts | 15° |
| 2026-05-01 14:13 | 36.71364 | 10.18967 | 2534 ft | 137 kts | 15° |
| 2026-05-01 14:13 | 36.72572 | 10.19294 | 2304 ft | 134 kts | 14° |
| 2026-05-01 14:13 | 36.73477 | 10.19540 | 2114 ft | 133 kts | 16° |
| 2026-05-01 14:14 | 36.74379 | 10.19785 | 1941 ft | 132 kts | 15° |
| 2026-05-01 14:14 | 36.75264 | 10.20025 | 1775 ft | 131 kts | 14° |
| 2026-05-01 14:14 | 36.76150 | 10.20265 | 1587 ft | 132 kts | 14° |
| 2026-05-01 14:14 | 36.77050 | 10.20510 | 1414 ft | 131 kts | 14° |
| 2026-05-01 14:15 | 36.77946 | 10.20753 | 1240 ft | 133 kts | 14° |
| 2026-05-01 14:15 | 36.78859 | 10.21001 | 1076 ft | 134 kts | 14° |
| 2026-05-01 14:15 | 36.79764 | 10.21248 | 903 ft | 131 kts | 15° |
| 2026-05-01 14:15 | 36.80618 | 10.21483 | 737 ft | 124 kts | 12° |
| 2026-05-01 14:16 | 36.81471 | 10.21700 | 521 ft | 126 kts | 11° |
| 2026-05-01 14:16 | 36.82319 | 10.21924 | 376 ft | 124 kts | 14° |
| 2026-05-01 14:16 | 36.83152 | 10.22156 | 205 ft | 121 kts | 13° |
| 2026-05-01 14:16 | 36.83977 | 10.22389 | 61 ft | 123 kts | 13° |
| 2026-05-01 14:17 | 36.84755 | 10.22607 | 31 ft | 96 kts | 12° |
| 2026-05-01 14:17 | 36.85233 | 10.22737 | 33 ft | 46 kts | 12° |
| 2026-05-01 14:17 | 36.85426 | 10.22787 | 33 ft | 27 kts | 12° |
| 2026-05-01 14:17 | 36.85617 | 10.22838 | 30 ft | 28 kts | 11° |
| 2026-05-01 14:18 | 36.85798 | 10.22889 | 30 ft | 27 kts | 13° |
| 2026-05-01 14:18 | 36.85974 | 10.22890 | 29 ft | 21 kts | 319° |
| 2026-05-01 14:18 | 36.86026 | 10.22720 | 30 ft | 22 kts | 248° |
| 2026-05-01 14:18 | 36.85941 | 10.22651 | 30 ft | 24 kts | 197° |
| 2026-05-01 14:19 | 36.85707 | 10.22587 | 30 ft | 28 kts | 192° |
| 2026-05-01 14:19 | 36.85506 | 10.22533 | 31 ft | 31 kts | 192° |
| 2026-05-01 14:19 | 36.85335 | 10.22485 | 31 ft | 24 kts | 192° |
| 2026-05-01 14:19 | 36.85177 | 10.22441 | 36 ft | 23 kts | 191° |
| 2026-05-01 14:20 | 36.85007 | 10.22395 | 31 ft | 27 kts | 192° |
| 2026-05-01 14:20 | 36.84868 | 10.22296 | 30 ft | 9 kts | 284° |
| 2026-05-01 14:20 | 36.84890 | 10.22187 | 30 ft | 14 kts | 280° |
| 2026-05-01 14:21 | 36.84924 | 10.22121 | 30 ft | 8 kts | 335° |
| 2026-05-01 14:21 | 36.84947 | 10.22106 | 30 ft | 1 kts | 331° |
| 2026-05-01 14:21 | 36.84952 | 10.22103 | 30 ft | 0 kts | 330° |
| 2026-05-01 14:22 | 36.84953 | 10.22102 | 30 ft | 0 kts | 330° |